sensor_id;sensor_type;location;lat;lon;timestamp;pressure;altitude;pressure_sealevel;temperature;humidity
12077;BME280;12420;42.676;23.262;2022-09-13T00:00:50;94334.59;;;15.74;100.00
12077;BME280;12420;42.676;23.262;2022-09-13T00:03:19;94439.31;;;16.58;100.00
12077;BME280;12420;42.676;23.262;2022-09-13T00:05:46;94354.88;;;15.99;100.00
12077;BME280;12420;42.676;23.262;2022-09-13T00:08:14;94434.56;;;16.68;100.00
12077;BME280;12420;42.676;23.262;2022-09-13T00:10:42;94426.88;;;16.51;100.00
12077;BME280;12420;42.676;23.262;2022-09-13T00:13:11;94325.25;;;16.04;100.00
12077;BME280;12420;42.676;23.262;2022-09-13T00:15:44;94413.09;;;16.70;100.00
12077;BME280;12420;42.676;23.262;2022-09-13T00:18:11;94405.34;;;16.44;100.00
12077;BME280;12420;42.676;23.262;2022-09-13T00:20:38;94245.00;;;15.62;100.00
12077;BME280;12420;42.676;23.262;2022-09-13T00:23:05;94426.56;;;16.89;100.00
12077;BME280;12420;42.676;23.262;2022-09-13T00:25:32;94416.47;;;16.52;100.00
12077;BME280;12420;42.676;23.262;2022-09-13T00:27:59;94399.91;;;16.28;100.00
12077;BME280;12420;42.676;23.262;2022-09-13T00:30:26;94305.66;;;16.12;100.00
12077;BME280;12420;42.676;23.262;2022-09-13T00:32:54;94432.00;;;16.87;100.00
12077;BME280;12420;42.676;23.262;2022-09-13T00:35:21;94368.06;;;16.49;100.00
12077;BME280;12420;42.676;23.262;2022-09-13T00:37:49;94411.53;;;16.85;100.00
12077;BME280;12420;42.676;23.262;2022-09-13T00:40:16;94408.94;;;16.97;100.00
12077;BME280;12420;42.676;23.262;2022-09-13T00:42:43;94369.56;;;16.67;100.00
12077;BME280;12420;42.676;23.262;2022-09-13T00:45:19;94313.66;;;15.90;100.00
12077;BME280;12420;42.676;23.262;2022-09-13T00:47:48;94343.75;;;16.59;100.00
12077;BME280;12420;42.676;23.262;2022-09-13T00:50:31;94376.22;;;16.72;100.00
12077;BME280;12420;42.676;23.262;2022-09-13T00:53:04;94387.66;;;16.84;100.00
12077;BME280;12420;42.676;23.262;2022-09-13T00:55:42;94378.88;;;16.87;100.00
12077;BME280;12420;42.676;23.262;2022-09-13T00:58:13;94388.06;;;16.80;100.00
12077;BME280;12420;42.676;23.262;2022-09-13T01:00:43;94256.88;;;15.70;100.00
12077;BME280;12420;42.676;23.262;2022-09-13T01:03:12;94352.19;;;16.34;100.00
12077;BME280;12420;42.676;23.262;2022-09-13T01:05:44;94362.06;;;16.70;100.00
12077;BME280;12420;42.676;23.262;2022-09-13T01:08:13;94401.91;;;16.96;100.00
12077;BME280;12420;42.676;23.262;2022-09-13T01:10:47;94336.72;;;16.33;100.00
12077;BME280;12420;42.676;23.262;2022-09-13T01:13:17;94229.59;;;15.86;100.00
12077;BME280;12420;42.676;23.262;2022-09-13T01:15:45;94455.09;;;17.05;100.00
12077;BME280;12420;42.676;23.262;2022-09-13T01:18:12;94423.75;;;17.07;100.00
12077;BME280;12420;42.676;23.262;2022-09-13T01:20:49;94290.06;;;16.09;100.00
12077;BME280;12420;42.676;23.262;2022-09-13T01:23:56;94268.94;;;16.15;100.00
12077;BME280;12420;42.676;23.262;2022-09-13T01:26:55;94388.44;;;16.59;100.00
12077;BME280;12420;42.676;23.262;2022-09-13T01:32:35;94365.59;;;16.53;100.00
12077;BME280;12420;42.676;23.262;2022-09-13T01:35:12;94397.06;;;16.71;100.00
12077;BME280;12420;42.676;23.262;2022-09-13T01:37:52;94306.00;;;16.33;100.00
12077;BME280;12420;42.676;23.262;2022-09-13T01:40:35;94277.63;;;16.02;100.00
12077;BME280;12420;42.676;23.262;2022-09-13T01:43:24;94378.28;;;16.89;100.00
12077;BME280;12420;42.676;23.262;2022-09-13T01:46:01;94336.75;;;16.68;100.00
12077;BME280;12420;42.676;23.262;2022-09-13T01:48:39;94280.50;;;15.94;100.00
12077;BME280;12420;42.676;23.262;2022-09-13T01:51:18;94273.22;;;16.16;100.00
12077;BME280;12420;42.676;23.262;2022-09-13T01:53:52;94389.56;;;16.81;100.00
12077;BME280;12420;42.676;23.262;2022-09-13T01:56:27;94340.47;;;16.11;100.00
12077;BME280;12420;42.676;23.262;2022-09-13T01:59:02;94236.22;;;15.73;100.00
12077;BME280;12420;42.676;23.262;2022-09-13T02:01:34;94283.59;;;15.81;100.00
12077;BME280;12420;42.676;23.262;2022-09-13T02:04:06;94234.03;;;15.89;100.00
12077;BME280;12420;42.676;23.262;2022-09-13T02:06:39;94273.63;;;16.13;100.00
12077;BME280;12420;42.676;23.262;2022-09-13T02:09:13;94339.47;;;16.58;100.00
12077;BME280;12420;42.676;23.262;2022-09-13T02:11:44;94193.47;;;15.71;100.00
12077;BME280;12420;42.676;23.262;2022-09-13T02:14:14;94256.03;;;15.85;100.00
12077;BME280;12420;42.676;23.262;2022-09-13T02:16:47;94365.34;;;16.76;100.00
12077;BME280;12420;42.676;23.262;2022-09-13T02:19:23;94280.16;;;15.90;100.00
12077;BME280;12420;42.676;23.262;2022-09-13T02:21:56;94330.53;;;16.17;100.00
12077;BME280;12420;42.676;23.262;2022-09-13T02:24:28;94258.50;;;15.98;100.00
12077;BME280;12420;42.676;23.262;2022-09-13T02:27:00;94255.44;;;15.61;100.00
12077;BME280;12420;42.676;23.262;2022-09-13T02:29:32;94400.75;;;16.56;100.00
12077;BME280;12420;42.676;23.262;2022-09-13T02:32:07;94385.44;;;16.82;100.00
12077;BME280;12420;42.676;23.262;2022-09-13T02:34:39;94255.25;;;15.84;100.00
12077;BME280;12420;42.676;23.262;2022-09-13T02:37:08;94396.06;;;16.41;100.00
12077;BME280;12420;42.676;23.262;2022-09-13T02:39:42;94372.03;;;16.38;100.00
12077;BME280;12420;42.676;23.262;2022-09-13T02:42:14;94315.78;;;16.24;100.00
12077;BME280;12420;42.676;23.262;2022-09-13T02:44:44;94339.13;;;16.37;100.00
12077;BME280;12420;42.676;23.262;2022-09-13T02:47:33;94394.69;;;16.67;100.00
12077;BME280;12420;42.676;23.262;2022-09-13T02:50:20;94248.28;;;15.76;100.00
12077;BME280;12420;42.676;23.262;2022-09-13T02:52:49;94285.09;;;15.99;100.00
12077;BME280;12420;42.676;23.262;2022-09-13T02:55:21;94392.06;;;16.52;100.00
12077;BME280;12420;42.676;23.262;2022-09-13T02:57:59;94376.16;;;16.37;100.00
12077;BME280;12420;42.676;23.262;2022-09-13T03:00:28;94212.97;;;15.20;100.00
12077;BME280;12420;42.676;23.262;2022-09-13T03:03:02;94290.72;;;15.67;100.00
12077;BME280;12420;42.676;23.262;2022-09-13T03:05:31;94360.03;;;16.11;100.00
12077;BME280;12420;42.676;23.262;2022-09-13T03:07:59;94388.00;;;16.03;100.00
12077;BME280;12420;42.676;23.262;2022-09-13T03:10:39;94375.56;;;15.96;100.00
12077;BME280;12420;42.676;23.262;2022-09-13T03:13:32;94372.94;;;15.98;100.00
12077;BME280;12420;42.676;23.262;2022-09-13T03:16:07;94382.41;;;16.03;100.00
12077;BME280;12420;42.676;23.262;2022-09-13T03:18:47;94255.75;;;15.15;100.00
12077;BME280;12420;42.676;23.262;2022-09-13T03:21:30;94330.75;;;15.29;100.00
12077;BME280;12420;42.676;23.262;2022-09-13T03:24:10;94305.31;;;15.25;100.00
12077;BME280;12420;42.676;23.262;2022-09-13T03:26:44;94254.66;;;15.11;100.00
12077;BME280;12420;42.676;23.262;2022-09-13T03:29:30;94275.09;;;15.13;100.00
12077;BME280;12420;42.676;23.262;2022-09-13T03:32:16;94391.69;;;15.80;100.00
12077;BME280;12420;42.676;23.262;2022-09-13T03:34:52;94212.06;;;14.45;100.00
12077;BME280;12420;42.676;23.262;2022-09-13T03:37:31;94266.97;;;15.00;100.00
12077;BME280;12420;42.676;23.262;2022-09-13T03:40:04;94280.84;;;15.15;100.00
12077;BME280;12420;42.676;23.262;2022-09-13T03:42:42;94329.59;;;15.39;100.00
12077;BME280;12420;42.676;23.262;2022-09-13T03:45:10;94246.41;;;14.88;100.00
12077;BME280;12420;42.676;23.262;2022-09-13T03:47:40;94317.69;;;15.39;100.00
12077;BME280;12420;42.676;23.262;2022-09-13T03:50:09;94390.47;;;15.58;100.00
12077;BME280;12420;42.676;23.262;2022-09-13T03:52:42;94321.19;;;15.47;100.00
12077;BME280;12420;42.676;23.262;2022-09-13T03:55:11;94222.16;;;14.73;100.00
12077;BME280;12420;42.676;23.262;2022-09-13T03:57:37;94385.88;;;15.86;100.00
12077;BME280;12420;42.676;23.262;2022-09-13T04:00:06;94376.72;;;15.93;100.00
12077;BME280;12420;42.676;23.262;2022-09-13T04:02:33;94406.81;;;15.95;100.00
12077;BME280;12420;42.676;23.262;2022-09-13T04:05:01;94416.44;;;15.69;100.00
12077;BME280;12420;42.676;23.262;2022-09-13T04:07:28;94277.63;;;14.94;100.00
12077;BME280;12420;42.676;23.262;2022-09-13T04:10:04;94385.38;;;15.80;100.00
12077;BME280;12420;42.676;23.262;2022-09-13T04:12:33;94371.31;;;15.95;100.00
12077;BME280;12420;42.676;23.262;2022-09-13T04:15:00;94278.81;;;15.08;100.00
12077;BME280;12420;42.676;23.262;2022-09-13T04:17:27;94301.13;;;15.41;100.00
12077;BME280;12420;42.676;23.262;2022-09-13T04:19:54;94381.31;;;15.98;100.00
12077;BME280;12420;42.676;23.262;2022-09-13T04:22:21;94424.56;;;15.82;100.00
12077;BME280;12420;42.676;23.262;2022-09-13T04:24:48;94262.59;;;14.89;100.00
12077;BME280;12420;42.676;23.262;2022-09-13T04:27:18;94231.72;;;14.95;100.00
12077;BME280;12420;42.676;23.262;2022-09-13T04:29:45;94355.34;;;15.88;100.00
12077;BME280;12420;42.676;23.262;2022-09-13T04:32:12;94380.34;;;16.03;100.00
12077;BME280;12420;42.676;23.262;2022-09-13T04:34:39;94378.50;;;15.73;100.00
12077;BME280;12420;42.676;23.262;2022-09-13T04:37:07;94363.53;;;15.86;100.00
12077;BME280;12420;42.676;23.262;2022-09-13T04:39:34;94357.56;;;15.90;100.00
12077;BME280;12420;42.676;23.262;2022-09-13T04:42:01;94434.06;;;16.12;100.00
12077;BME280;12420;42.676;23.262;2022-09-13T04:44:30;94351.81;;;15.88;100.00
12077;BME280;12420;42.676;23.262;2022-09-13T04:46:58;94471.59;;;16.26;100.00
12077;BME280;12420;42.676;23.262;2022-09-13T04:49:25;94363.13;;;15.90;100.00
12077;BME280;12420;42.676;23.262;2022-09-13T04:51:52;94292.22;;;15.43;100.00
12077;BME280;12420;42.676;23.262;2022-09-13T04:54:20;94238.41;;;15.25;100.00
12077;BME280;12420;42.676;23.262;2022-09-13T04:56:47;94255.94;;;15.43;100.00
12077;BME280;12420;42.676;23.262;2022-09-13T04:59:14;94415.72;;;16.68;100.00
12077;BME280;12420;42.676;23.262;2022-09-13T05:01:43;94402.44;;;16.34;99.69
12077;BME280;12420;42.676;23.262;2022-09-13T05:04:10;94476.28;;;16.91;98.57
12077;BME280;12420;42.676;23.262;2022-09-13T05:06:37;94421.81;;;17.00;98.07
12077;BME280;12420;42.676;23.262;2022-09-13T05:09:05;94429.19;;;17.22;98.85
12077;BME280;12420;42.676;23.262;2022-09-13T05:11:32;94348.22;;;16.37;94.00
12077;BME280;12420;42.676;23.262;2022-09-13T05:14:00;94375.88;;;16.68;95.92
12077;BME280;12420;42.676;23.262;2022-09-13T05:16:29;94262.38;;;16.38;94.01
12077;BME280;12420;42.676;23.262;2022-09-13T05:18:58;94427.78;;;17.31;92.65
12077;BME280;12420;42.676;23.262;2022-09-13T05:21:26;94411.91;;;17.16;92.02
12077;BME280;12420;42.676;23.262;2022-09-13T05:23:54;94468.44;;;17.32;93.19
12077;BME280;12420;42.676;23.262;2022-09-13T05:26:23;94437.09;;;17.33;93.17
12077;BME280;12420;42.676;23.262;2022-09-13T05:28:50;94447.78;;;17.10;92.88
12077;BME280;12420;42.676;23.262;2022-09-13T05:31:19;94430.66;;;16.88;92.21
12077;BME280;12420;42.676;23.262;2022-09-13T05:33:52;94306.25;;;16.27;92.87
12077;BME280;12420;42.676;23.262;2022-09-13T05:36:21;94344.13;;;16.38;93.44
12077;BME280;12420;42.676;23.262;2022-09-13T05:38:48;94355.31;;;16.73;94.24
12077;BME280;12420;42.676;23.262;2022-09-13T05:41:15;94276.66;;;16.07;91.43
12077;BME280;12420;42.676;23.262;2022-09-13T05:43:42;94362.56;;;16.76;91.76
12077;BME280;12420;42.676;23.262;2022-09-13T05:46:12;94431.66;;;17.18;93.02
12077;BME280;12420;42.676;23.262;2022-09-13T05:48:40;94350.47;;;16.39;93.30
12077;BME280;12420;42.676;23.262;2022-09-13T05:51:08;94421.63;;;16.80;94.20
12077;BME280;12420;42.676;23.262;2022-09-13T05:53:38;94334.03;;;16.00;94.83
12077;BME280;12420;42.676;23.262;2022-09-13T05:56:06;94357.03;;;16.34;95.07
12077;BME280;12420;42.676;23.262;2022-09-13T05:58:33;94463.41;;;17.13;94.23
12077;BME280;12420;42.676;23.262;2022-09-13T06:01:00;94418.66;;;16.78;93.40
12077;BME280;12420;42.676;23.262;2022-09-13T06:03:27;94462.19;;;17.41;93.46
12077;BME280;12420;42.676;23.262;2022-09-13T06:05:55;94388.09;;;16.98;91.77
12077;BME280;12420;42.676;23.262;2022-09-13T06:08:24;94417.25;;;17.39;90.54
12077;BME280;12420;42.676;23.262;2022-09-13T06:10:57;94437.78;;;17.86;89.25
12077;BME280;12420;42.676;23.262;2022-09-13T06:13:25;94408.00;;;17.64;89.78
12077;BME280;12420;42.676;23.262;2022-09-13T06:15:53;94352.53;;;17.52;86.59
12077;BME280;12420;42.676;23.262;2022-09-13T06:18:21;94424.88;;;17.56;86.03
12077;BME280;12420;42.676;23.262;2022-09-13T06:20:49;94445.69;;;17.63;89.09
12077;BME280;12420;42.676;23.262;2022-09-13T06:23:16;94356.50;;;17.05;89.80
12077;BME280;12420;42.676;23.262;2022-09-13T06:25:43;94446.41;;;17.81;89.34
12077;BME280;12420;42.676;23.262;2022-09-13T06:28:28;94440.22;;;17.20;88.42
12077;BME280;12420;42.676;23.262;2022-09-13T06:31:00;94377.78;;;17.18;90.29
12077;BME280;12420;42.676;23.262;2022-09-13T06:33:27;94293.84;;;16.56;89.46
12077;BME280;12420;42.676;23.262;2022-09-13T06:35:54;94455.84;;;17.23;89.02
12077;BME280;12420;42.676;23.262;2022-09-13T06:38:21;94418.22;;;17.51;87.17
12077;BME280;12420;42.676;23.262;2022-09-13T06:40:48;94376.91;;;16.80;88.08
12077;BME280;12420;42.676;23.262;2022-09-13T06:43:25;94419.22;;;16.94;88.27
12077;BME280;12420;42.676;23.262;2022-09-13T06:45:52;94441.78;;;17.13;90.44
12077;BME280;12420;42.676;23.262;2022-09-13T06:48:19;94363.97;;;16.67;89.07
12077;BME280;12420;42.676;23.262;2022-09-13T06:50:46;94328.69;;;16.37;88.60
12077;BME280;12420;42.676;23.262;2022-09-13T06:53:13;94480.50;;;17.17;89.88
12077;BME280;12420;42.676;23.262;2022-09-13T06:55:40;94494.66;;;17.19;89.93
12077;BME280;12420;42.676;23.262;2022-09-13T06:58:07;94421.72;;;16.65;89.77
12077;BME280;12420;42.676;23.262;2022-09-13T07:00:35;94349.81;;;16.65;87.92
12077;BME280;12420;42.676;23.262;2022-09-13T07:03:02;94307.34;;;16.49;86.31
12077;BME280;12420;42.676;23.262;2022-09-13T07:05:29;94432.78;;;17.32;85.94
12077;BME280;12420;42.676;23.262;2022-09-13T07:07:56;94470.41;;;17.22;86.58
12077;BME280;12420;42.676;23.262;2022-09-13T07:10:24;94377.06;;;17.00;85.93
12077;BME280;12420;42.676;23.262;2022-09-13T07:12:51;94442.69;;;17.33;87.62
12077;BME280;12420;42.676;23.262;2022-09-13T07:15:18;94452.34;;;17.67;85.12
12077;BME280;12420;42.676;23.262;2022-09-13T07:17:46;94422.75;;;17.29;83.08
12077;BME280;12420;42.676;23.262;2022-09-13T07:20:15;94452.28;;;17.57;84.63
12077;BME280;12420;42.676;23.262;2022-09-13T07:22:42;94487.06;;;17.99;83.01
12077;BME280;12420;42.676;23.262;2022-09-13T07:25:09;94351.75;;;16.98;81.48
12077;BME280;12420;42.676;23.262;2022-09-13T07:27:36;94400.88;;;17.53;80.63
12077;BME280;12420;42.676;23.262;2022-09-13T07:30:04;94467.34;;;18.07;80.98
12077;BME280;12420;42.676;23.262;2022-09-13T07:32:31;94452.53;;;18.23;80.07
12077;BME280;12420;42.676;23.262;2022-09-13T07:34:59;94503.97;;;18.46;79.12
12077;BME280;12420;42.676;23.262;2022-09-13T07:37:26;94361.13;;;17.37;79.53
12077;BME280;12420;42.676;23.262;2022-09-13T07:39:53;94381.28;;;17.53;79.50
12077;BME280;12420;42.676;23.262;2022-09-13T07:42:20;94394.38;;;17.50;79.57
12077;BME280;12420;42.676;23.262;2022-09-13T07:44:47;94482.72;;;18.42;78.64
12077;BME280;12420;42.676;23.262;2022-09-13T07:47:14;94408.75;;;17.47;75.26
12077;BME280;12420;42.676;23.262;2022-09-13T07:49:41;94368.50;;;17.15;75.50
12077;BME280;12420;42.676;23.262;2022-09-13T07:52:09;94428.25;;;17.99;75.40
12077;BME280;12420;42.676;23.262;2022-09-13T07:54:36;94427.22;;;17.77;76.54
12077;BME280;12420;42.676;23.262;2022-09-13T07:57:03;94500.34;;;18.62;74.64
12077;BME280;12420;42.676;23.262;2022-09-13T07:59:31;94472.56;;;18.47;70.31
12077;BME280;12420;42.676;23.262;2022-09-13T08:01:58;94506.50;;;18.88;73.01
12077;BME280;12420;42.676;23.262;2022-09-13T08:04:25;94418.53;;;18.37;69.72
12077;BME280;12420;42.676;23.262;2022-09-13T08:06:52;94397.03;;;18.03;71.24
12077;BME280;12420;42.676;23.262;2022-09-13T08:09:20;94555.63;;;18.79;71.96
12077;BME280;12420;42.676;23.262;2022-09-13T08:11:49;94398.25;;;18.19;71.70
12077;BME280;12420;42.676;23.262;2022-09-13T08:14:19;94428.22;;;18.26;71.08
12077;BME280;12420;42.676;23.262;2022-09-13T08:16:47;94388.00;;;17.94;71.01
12077;BME280;12420;42.676;23.262;2022-09-13T08:19:16;94461.84;;;18.63;68.99
12077;BME280;12420;42.676;23.262;2022-09-13T08:21:44;94485.88;;;19.03;71.87
12077;BME280;12420;42.676;23.262;2022-09-13T08:24:13;94481.16;;;19.15;70.42
12077;BME280;12420;42.676;23.262;2022-09-13T08:26:42;94400.28;;;18.46;67.35
12077;BME280;12420;42.676;23.262;2022-09-13T08:29:11;94374.13;;;18.33;66.22
12077;BME280;12420;42.676;23.262;2022-09-13T08:31:40;94423.69;;;18.87;65.55
12077;BME280;12420;42.676;23.262;2022-09-13T08:34:09;94445.75;;;19.49;65.11
12077;BME280;12420;42.676;23.262;2022-09-13T08:36:37;94443.38;;;19.65;63.30
12077;BME280;12420;42.676;23.262;2022-09-13T08:39:07;94421.66;;;19.17;60.74
12077;BME280;12420;42.676;23.262;2022-09-13T08:44:33;94413.97;;;19.07;60.87
12077;BME280;12420;42.676;23.262;2022-09-13T08:47:20;94502.06;;;19.80;60.18
12077;BME280;12420;42.676;23.262;2022-09-13T08:49:52;94341.66;;;18.96;61.12
12077;BME280;12420;42.676;23.262;2022-09-13T08:52:28;94336.34;;;18.81;59.54
12077;BME280;12420;42.676;23.262;2022-09-13T08:54:59;94444.13;;;19.36;59.29
12077;BME280;12420;42.676;23.262;2022-09-13T08:57:34;94448.09;;;19.82;60.29
12077;BME280;12420;42.676;23.262;2022-09-13T09:00:12;94476.22;;;20.32;57.25
12077;BME280;12420;42.676;23.262;2022-09-13T09:02:52;94369.34;;;19.50;57.60
12077;BME280;12420;42.676;23.262;2022-09-13T09:05:26;94435.69;;;19.56;55.79
12077;BME280;12420;42.676;23.262;2022-09-13T09:07:58;94377.78;;;19.50;56.67
12077;BME280;12420;42.676;23.262;2022-09-13T09:10:29;94320.94;;;19.21;55.63
12077;BME280;12420;42.676;23.262;2022-09-13T09:19:49;94453.56;;;20.40;58.36
12077;BME280;12420;42.676;23.262;2022-09-13T09:25:23;94374.25;;;19.40;52.72
12077;BME280;12420;42.676;23.262;2022-09-13T09:27:51;94461.94;;;20.09;53.85
12077;BME280;12420;42.676;23.262;2022-09-13T09:30:19;94398.72;;;19.79;55.10
12077;BME280;12420;42.676;23.262;2022-09-13T09:33:02;94517.47;;;20.39;54.86
12077;BME280;12420;42.676;23.262;2022-09-13T09:35:45;94481.63;;;20.50;53.12
12077;BME280;12420;42.676;23.262;2022-09-13T09:38:29;94438.22;;;20.31;53.58
12077;BME280;12420;42.676;23.262;2022-09-13T09:41:00;94410.41;;;20.35;54.30
12077;BME280;12420;42.676;23.262;2022-09-13T09:43:32;94357.81;;;20.16;51.70
12077;BME280;12420;42.676;23.262;2022-09-13T09:46:02;94359.00;;;20.13;51.95
12077;BME280;12420;42.676;23.262;2022-09-13T09:48:38;94450.66;;;20.91;53.84
12077;BME280;12420;42.676;23.262;2022-09-13T09:51:11;94482.78;;;20.66;53.23
12077;BME280;12420;42.676;23.262;2022-09-13T09:53:43;94448.75;;;20.52;54.11
12077;BME280;12420;42.676;23.262;2022-09-13T09:56:20;94352.66;;;20.13;53.43
12077;BME280;12420;42.676;23.262;2022-09-13T09:58:49;94448.75;;;20.52;52.89
12077;BME280;12420;42.676;23.262;2022-09-13T10:01:22;94445.19;;;20.30;53.56
12077;BME280;12420;42.676;23.262;2022-09-13T10:04:06;94441.84;;;20.12;53.47
12077;BME280;12420;42.676;23.262;2022-09-13T10:06:37;94454.59;;;20.35;54.49
12077;BME280;12420;42.676;23.262;2022-09-13T10:09:06;94326.50;;;19.60;53.57
12077;BME280;12420;42.676;23.262;2022-09-13T10:11:46;94357.25;;;20.39;52.16
12077;BME280;12420;42.676;23.262;2022-09-13T10:14:35;94331.75;;;20.47;53.75
12077;BME280;12420;42.676;23.262;2022-09-13T10:17:04;94426.84;;;21.35;54.68
12077;BME280;12420;42.676;23.262;2022-09-13T10:19:32;94424.97;;;21.06;54.21
12077;BME280;12420;42.676;23.262;2022-09-13T10:22:11;94343.13;;;20.49;53.86
12077;BME280;12420;42.676;23.262;2022-09-13T10:24:39;94443.59;;;20.90;51.35
12077;BME280;12420;42.676;23.262;2022-09-13T10:27:19;94409.34;;;20.72;51.13
12077;BME280;12420;42.676;23.262;2022-09-13T10:29:53;94293.75;;;19.93;51.48
12077;BME280;12420;42.676;23.262;2022-09-13T10:32:24;94442.34;;;20.71;52.25
12077;BME280;12420;42.676;23.262;2022-09-13T10:34:52;94289.13;;;19.67;52.93
12077;BME280;12420;42.676;23.262;2022-09-13T10:37:24;94420.66;;;20.84;53.03
12077;BME280;12420;42.676;23.262;2022-09-13T10:39:59;94346.28;;;20.44;52.03
12077;BME280;12420;42.676;23.262;2022-09-13T10:42:28;94391.94;;;21.07;51.19
12077;BME280;12420;42.676;23.262;2022-09-13T10:44:58;94451.97;;;21.21;49.26
12077;BME280;12420;42.676;23.262;2022-09-13T10:47:31;94389.84;;;21.29;49.55
12077;BME280;12420;42.676;23.262;2022-09-13T10:50:18;94395.06;;;21.44;51.36
12077;BME280;12420;42.676;23.262;2022-09-13T10:52:48;94285.91;;;20.45;51.78
12077;BME280;12420;42.676;23.262;2022-09-13T10:55:38;94253.16;;;20.06;50.51
12077;BME280;12420;42.676;23.262;2022-09-13T10:58:17;94380.22;;;21.10;50.34
12077;BME280;12420;42.676;23.262;2022-09-13T11:01:12;94433.41;;;21.28;48.54
12077;BME280;12420;42.676;23.262;2022-09-13T11:06:46;94392.66;;;21.50;46.40
12077;BME280;12420;42.676;23.262;2022-09-13T11:09:18;94383.44;;;20.95;45.63
12077;BME280;12420;42.676;23.262;2022-09-13T11:11:53;94362.06;;;21.01;46.58
12077;BME280;12420;42.676;23.262;2022-09-13T11:14:41;94259.34;;;20.36;46.60
12077;BME280;12420;42.676;23.262;2022-09-13T11:17:23;94362.81;;;21.35;45.71
12077;BME280;12420;42.676;23.262;2022-09-13T11:20:12;94378.81;;;21.54;45.38
12077;BME280;12420;42.676;23.262;2022-09-13T11:22:57;94334.63;;;21.45;44.63
12077;BME280;12420;42.676;23.262;2022-09-13T11:25:42;94399.38;;;21.90;44.26
12077;BME280;12420;42.676;23.262;2022-09-13T11:28:30;94236.78;;;20.67;44.62
12077;BME280;12420;42.676;23.262;2022-09-13T11:31:16;94331.22;;;21.37;46.35
12077;BME280;12420;42.676;23.262;2022-09-13T11:33:58;94335.06;;;21.08;46.79
12077;BME280;12420;42.676;23.262;2022-09-13T11:36:51;94371.81;;;21.43;46.58
12077;BME280;12420;42.676;23.262;2022-09-13T11:39:28;94307.56;;;20.64;46.73
12077;BME280;12420;42.676;23.262;2022-09-13T11:42:05;94402.47;;;21.61;45.81
12077;BME280;12420;42.676;23.262;2022-09-13T11:44:47;94208.88;;;20.59;46.60
12077;BME280;12420;42.676;23.262;2022-09-13T11:47:28;94378.84;;;21.33;45.43
12077;BME280;12420;42.676;23.262;2022-09-13T11:50:19;94281.88;;;20.91;45.51
12077;BME280;12420;42.676;23.262;2022-09-13T11:52:55;94243.88;;;20.47;45.31
12077;BME280;12420;42.676;23.262;2022-09-13T11:55:28;94391.00;;;21.68;45.83
12077;BME280;12420;42.676;23.262;2022-09-13T11:58:00;94337.66;;;21.16;46.32
12077;BME280;12420;42.676;23.262;2022-09-13T12:00:33;94244.75;;;20.28;47.62
12077;BME280;12420;42.676;23.262;2022-09-13T12:03:13;94406.19;;;21.42;48.08
12077;BME280;12420;42.676;23.262;2022-09-13T12:05:43;94261.03;;;20.72;47.94
12077;BME280;12420;42.676;23.262;2022-09-13T12:08:16;94352.25;;;21.24;46.23
12077;BME280;12420;42.676;23.262;2022-09-13T12:10:47;94392.41;;;21.24;44.53
12077;BME280;12420;42.676;23.262;2022-09-13T12:13:20;94331.63;;;20.45;45.04
12077;BME280;12420;42.676;23.262;2022-09-13T12:15:50;94350.47;;;21.07;45.46
12077;BME280;12420;42.676;23.262;2022-09-13T12:18:23;94361.53;;;21.48;44.22
12077;BME280;12420;42.676;23.262;2022-09-13T12:20:53;94316.00;;;21.40;45.15
12077;BME280;12420;42.676;23.262;2022-09-13T12:23:26;94219.75;;;20.87;44.77
12077;BME280;12420;42.676;23.262;2022-09-13T12:25:59;94350.09;;;21.79;44.92
12077;BME280;12420;42.676;23.262;2022-09-13T12:28:47;94366.63;;;21.73;45.66
12077;BME280;12420;42.676;23.262;2022-09-13T12:31:19;94371.41;;;21.71;46.30
12077;BME280;12420;42.676;23.262;2022-09-13T12:33:47;94313.38;;;21.32;45.86
12077;BME280;12420;42.676;23.262;2022-09-13T12:36:45;94342.94;;;21.43;45.46
12077;BME280;12420;42.676;23.262;2022-09-13T12:39:33;94369.78;;;21.56;45.63
12077;BME280;12420;42.676;23.262;2022-09-13T12:45:30;94356.16;;;20.97;46.47
12077;BME280;12420;42.676;23.262;2022-09-13T12:48:23;94362.09;;;21.13;47.35
12077;BME280;12420;42.676;23.262;2022-09-13T12:51:13;94318.88;;;20.75;49.88
12077;BME280;12420;42.676;23.262;2022-09-13T12:54:11;94347.78;;;21.09;50.48
12077;BME280;12420;42.676;23.262;2022-09-13T12:56:56;94383.31;;;21.14;49.58
12077;BME280;12420;42.676;23.262;2022-09-13T13:02:40;94333.38;;;20.93;45.89
12077;BME280;12420;42.676;23.262;2022-09-13T13:05:25;94392.69;;;21.62;47.46
12077;BME280;12420;42.676;23.262;2022-09-13T13:07:58;94364.38;;;21.60;47.51
12077;BME280;12420;42.676;23.262;2022-09-13T13:10:29;94366.22;;;21.34;49.00
12077;BME280;12420;42.676;23.262;2022-09-13T13:13:10;94268.66;;;20.38;49.83
12077;BME280;12420;42.676;23.262;2022-09-13T13:15:59;94292.66;;;20.61;50.21
12077;BME280;12420;42.676;23.262;2022-09-13T13:18:30;94367.50;;;20.66;50.11
12077;BME280;12420;42.676;23.262;2022-09-13T13:21:38;94297.44;;;20.49;50.41
12077;BME280;12420;42.676;23.262;2022-09-13T13:24:36;94369.50;;;20.75;50.71
12077;BME280;12420;42.676;23.262;2022-09-13T13:27:35;94369.16;;;21.02;50.51
12077;BME280;12420;42.676;23.262;2022-09-13T13:30:40;94364.53;;;21.07;50.23
12077;BME280;12420;42.676;23.262;2022-09-13T13:33:14;94370.16;;;21.07;51.48
12077;BME280;12420;42.676;23.262;2022-09-13T13:35:44;94373.84;;;21.10;52.08
12077;BME280;12420;42.676;23.262;2022-09-13T13:38:41;94370.38;;;20.99;51.23
12077;BME280;12420;42.676;23.262;2022-09-13T13:41:43;94368.22;;;21.10;52.10